createdAt,value
2018-10-21T00:09:38.036Z,12.45
2018-10-21T00:14:41.316Z,13.38
2018-10-21T00:19:44.563Z,13.60
2018-10-21T00:24:47.870Z,11.90
2018-10-21T00:29:51.191Z,12.18
2018-10-21T00:34:54.556Z,12.30
2018-10-21T00:39:57.824Z,11.03
2018-10-21T00:45:01.427Z,11.73
2018-10-21T00:50:07.796Z,11.60
2018-10-21T00:55:11.532Z,11.70
2018-10-21T01:00:14.937Z,11.00
2018-10-21T01:05:18.218Z,11.30
2018-10-21T01:10:22.466Z,11.30
2018-10-21T01:15:25.775Z,13.22
2018-10-21T01:20:29.079Z,12.80
2018-10-21T01:25:32.397Z,12.82
2018-10-21T01:30:35.793Z,13.13
2018-10-21T01:35:39.104Z,14.70
2018-10-21T01:40:45.172Z,14.13
2018-10-21T01:45:48.563Z,13.00
2018-10-21T01:50:51.897Z,14.07
2018-10-21T01:55:56.246Z,14.63
2018-10-21T02:00:59.758Z,14.00
2018-10-21T02:06:03.151Z,12.43
2018-10-21T02:11:06.476Z,12.88
2018-10-21T02:16:09.822Z,12.30
2018-10-21T02:21:13.366Z,14.50
2018-10-21T02:26:16.644Z,11.38
2018-10-21T02:31:20.003Z,9.33
2018-10-21T02:36:23.341Z,11.00
2018-10-21T02:41:43.178Z,12.23
2018-10-21T02:46:47.091Z,14.28
2018-10-21T02:51:55.718Z,13.38
2018-10-21T02:56:59.221Z,12.28
2018-10-21T03:02:02.498Z,12.80
2018-10-21T03:07:05.976Z,14.15
2018-10-21T03:12:09.264Z,13.53
2018-10-21T03:17:12.589Z,14.47
2018-10-21T03:22:15.848Z,12.35
2018-10-21T03:27:19.249Z,13.87
2018-10-21T03:32:22.465Z,14.87
2018-10-21T03:37:25.840Z,14.63
2018-10-21T03:42:29.143Z,14.30
2018-10-21T03:47:32.455Z,12.85
2018-10-21T03:52:35.842Z,13.62
2018-10-21T03:57:39.211Z,14.40
2018-10-21T04:02:42.820Z,16.40
2018-10-21T04:07:46.134Z,15.58
2018-10-21T04:12:50.176Z,16.10
2018-10-21T04:17:55.957Z,16.32
2018-10-21T04:23:00.444Z,15.05
2018-10-21T04:28:04.397Z,14.65
2018-10-21T04:33:13.058Z,15.15
2018-10-21T04:38:30.689Z,14.27
2018-10-21T04:43:34.023Z,14.93
2018-10-21T04:48:37.333Z,13.98
2018-10-21T04:53:41.260Z,14.53
2018-10-21T04:58:44.511Z,13.65
2018-10-21T05:03:47.826Z,14.47
2018-10-21T05:08:51.105Z,13.53
2018-10-21T05:13:54.347Z,14.70
2018-10-21T05:18:57.640Z,13.60
2018-10-21T05:24:01.022Z,14.90
2018-10-21T05:29:04.360Z,16.80
2018-10-21T05:34:07.874Z,15.98
2018-10-21T05:39:11.884Z,13.50
2018-10-21T05:44:15.205Z,13.62
2018-10-21T05:49:19.586Z,13.90
2018-10-21T05:54:23.050Z,15.50
2018-10-21T06:05:07.384Z,14.17
2018-10-21T06:10:10.855Z,14.68
2018-10-21T06:15:14.201Z,14.17
2018-10-21T06:20:22.938Z,15.20
2018-10-21T06:25:26.511Z,14.55
2018-10-21T06:30:30.649Z,14.00
2018-10-21T06:35:34.203Z,13.40
2018-10-21T06:40:37.644Z,13.83
2018-10-21T06:45:46.503Z,14.00
2018-10-21T06:50:51.489Z,15.13
2018-10-21T06:55:54.910Z,14.95
2018-10-21T07:00:58.355Z,14.60
2018-10-21T07:06:10.854Z,13.40
2018-10-21T07:11:14.456Z,14.73
2018-10-21T07:16:17.952Z,14.00
2018-10-21T07:21:21.248Z,12.35
2018-10-21T07:26:25.158Z,12.90
2018-10-21T07:31:30.946Z,13.62
2018-10-21T07:36:34.705Z,12.20
2018-10-21T07:41:38.378Z,12.33
2018-10-21T07:46:41.878Z,12.70
2018-10-21T07:51:47.592Z,12.60
2018-10-21T07:56:51.219Z,12.70
2018-10-21T08:01:56.012Z,13.53
2018-10-21T08:07:10.537Z,12.47
2018-10-21T08:12:14.091Z,13.20
2018-10-21T08:17:17.978Z,13.50
2018-10-21T08:22:21.897Z,12.35
2018-10-21T08:27:25.623Z,13.25
2018-10-21T08:32:30.600Z,13.95
2018-10-21T08:49:05.277Z,11.60
2018-10-21T08:54:42.389Z,11.70
2018-10-21T08:59:46.079Z,10.70
2018-10-21T09:04:49.678Z,11.38
2018-10-21T09:15:41.074Z,11.12
2018-10-21T09:26:18.952Z,10.80
2018-10-21T09:31:27.457Z,10.90
2018-10-21T09:47:46.854Z,9.28
2018-10-21T09:52:50.423Z,8.97
2018-10-21T09:57:54.043Z,8.23
2018-10-21T10:03:04.966Z,8.15
2018-10-21T10:08:09.331Z,8.03
2018-10-21T10:13:14.009Z,8.07
2018-10-21T10:18:24.047Z,7.50
2018-10-21T10:23:27.485Z,7.80
2018-10-21T10:28:30.977Z,8.58
2018-10-21T10:33:35.815Z,7.60
2018-10-21T10:38:43.369Z,7.70
2018-10-21T10:43:53.195Z,6.53
2018-10-21T10:48:57.463Z,7.50
2018-10-21T10:54:05.293Z,6.53
2018-10-21T10:59:10.008Z,7.13
2018-10-21T11:04:14.385Z,6.00
2018-10-21T11:09:18.655Z,5.60
2018-10-21T11:14:23.070Z,4.53
2018-10-21T11:19:50.136Z,5.00
2018-10-21T11:25:01.433Z,4.25
2018-10-21T11:30:10.251Z,4.30
2018-10-21T11:35:15.290Z,4.15
2018-10-21T11:40:28.391Z,4.08
2018-10-21T11:45:35.945Z,3.70
2018-10-21T11:50:44.738Z,3.90
2018-10-21T11:55:51.551Z,3.60
2018-10-21T12:00:54.876Z,3.50
2018-10-21T12:05:58.221Z,3.70
2018-10-21T12:11:02.494Z,3.45
2018-10-21T12:16:06.210Z,3.30
2018-10-21T12:21:09.414Z,3.90
2018-10-21T12:26:12.693Z,3.70
2018-10-21T12:31:16.139Z,3.50
2018-10-21T12:36:19.330Z,3.40
2018-10-21T12:41:22.702Z,3.52
2018-10-21T12:46:26.145Z,3.67
2018-10-21T12:51:29.529Z,4.00
2018-10-21T12:56:32.879Z,3.72
2018-10-21T13:01:36.193Z,3.30
2018-10-21T13:06:46.177Z,3.22
2018-10-21T13:11:55.428Z,3.47
2018-10-21T13:17:02.208Z,4.00
2018-10-21T13:22:13.362Z,3.40
2018-10-21T13:27:18.728Z,4.47
2018-10-21T13:32:22.027Z,3.40
2018-10-21T13:37:27.038Z,3.90
2018-10-21T13:42:36.067Z,3.70
2018-10-21T13:48:23.020Z,4.25
2018-10-21T13:53:27.211Z,3.58
2018-10-21T13:58:30.868Z,3.27
2018-10-21T14:03:34.976Z,4.00
2018-10-21T14:08:39.485Z,3.80
2018-10-21T14:13:43.841Z,4.00
2018-10-21T14:18:47.589Z,3.70
2018-10-21T14:23:56.291Z,4.07
2018-10-21T14:28:59.664Z,3.70
2018-10-21T14:34:03.229Z,3.37
2018-10-21T14:39:10.432Z,3.55
2018-10-21T14:44:13.955Z,3.35
2018-10-21T14:49:17.499Z,3.00
2018-10-21T14:54:20.885Z,4.22
2018-10-21T14:59:24.255Z,4.72
2018-10-21T15:04:27.637Z,3.30
2018-10-21T15:15:06.355Z,3.40
2018-10-21T15:20:12.110Z,2.98
2018-10-21T15:25:15.588Z,3.08
2018-10-21T15:30:20.490Z,2.87
2018-10-21T15:35:31.547Z,5.10
2018-10-21T15:40:35.361Z,4.40
2018-10-21T15:45:40.668Z,24.47
2018-10-21T15:50:44.677Z,21.80
2018-10-21T15:55:47.824Z,6.33
2018-10-21T16:00:57.566Z,4.55
2018-10-21T16:06:04.161Z,3.30
2018-10-21T16:11:07.905Z,7.53
2018-10-21T16:16:12.908Z,5.45
2018-10-21T16:21:16.128Z,5.10
2018-10-21T16:26:23.322Z,4.20
2018-10-21T16:31:33.834Z,3.90
2018-10-21T16:36:38.021Z,4.53
2018-10-21T16:41:44.856Z,4.90
2018-10-21T16:52:21.020Z,5.37
2018-10-21T16:57:30.144Z,5.25
2018-10-21T17:02:34.448Z,5.70
2018-10-21T17:24:01.241Z,7.67
2018-10-21T17:45:30.659Z,7.20
2018-10-21T18:28:39.812Z,6.08
2018-10-21T18:50:08.200Z,5.30
2018-10-21T18:55:11.724Z,5.60
2018-10-21T19:00:17.419Z,5.90
2018-10-21T19:05:20.783Z,7.58
2018-10-21T19:10:24.242Z,9.28
2018-10-21T19:15:27.624Z,19.75
2018-10-21T19:20:30.966Z,23.42
2018-10-21T19:25:34.302Z,21.15
2018-10-21T19:30:37.684Z,16.02
2018-10-21T19:35:41.010Z,13.70
2018-10-21T19:40:44.470Z,11.60
2018-10-21T19:45:47.934Z,13.08
2018-10-21T19:50:53.947Z,10.60
2018-10-21T19:55:57.323Z,9.13
2018-10-21T20:01:00.668Z,10.25
2018-10-21T20:06:03.964Z,8.83
2018-10-21T20:11:07.368Z,8.43
2018-10-21T20:16:10.772Z,7.25
2018-10-21T20:21:14.073Z,9.45
2018-10-21T20:26:17.412Z,7.90
2018-10-21T20:31:20.797Z,8.75
2018-10-21T20:36:24.036Z,8.70
2018-10-21T20:41:27.410Z,11.73
2018-10-21T20:46:30.736Z,13.47
2018-10-21T20:51:34.327Z,14.20
2018-10-21T20:56:37.487Z,14.30
2018-10-21T21:01:40.813Z,14.70
2018-10-21T21:12:12.277Z,8.70
2018-10-21T21:17:17.989Z,7.20
2018-10-21T21:28:03.539Z,10.63
2018-10-21T21:33:07.348Z,10.20
2018-10-21T21:38:10.789Z,7.97
2018-10-21T21:43:14.098Z,7.70
2018-10-21T21:48:17.505Z,8.75
2018-10-21T21:53:20.746Z,9.00
2018-10-21T21:58:24.028Z,8.55
2018-10-21T22:03:27.290Z,8.55
2018-10-21T22:08:30.684Z,8.00
2018-10-21T22:19:46.187Z,8.17
2018-10-21T22:24:49.493Z,7.70
2018-10-21T22:29:52.718Z,9.00
2018-10-21T22:34:55.984Z,7.40
2018-10-21T22:40:00.236Z,7.10
2018-10-21T22:45:03.400Z,6.80
2018-10-21T22:50:08.200Z,6.00
2018-10-21T22:55:11.642Z,6.40
2018-10-21T23:00:14.983Z,6.97
2018-10-21T23:05:18.229Z,6.42
2018-10-21T23:10:22.419Z,7.60
2018-10-21T23:15:27.322Z,7.70
2018-10-21T23:20:50.021Z,8.53
2018-10-21T23:25:53.378Z,8.40
2018-10-21T23:30:58.753Z,7.90
2018-10-21T23:58:34.551Z,8.40
